sensor_id;sensor_type;location;lat;lon;timestamp;P1;durP1;ratioP1;P2;durP2;ratioP2
13704;SDS011;6924;52.122;9.952;2022-11-15T00:01:19;5.63;;;5.00;;
13704;SDS011;6924;52.122;9.952;2022-11-15T00:03:45;6.77;;;4.70;;
13704;SDS011;6924;52.122;9.952;2022-11-15T00:06:12;4.63;;;3.93;;
13704;SDS011;6924;52.122;9.952;2022-11-15T00:08:39;6.77;;;4.40;;
13704;SDS011;6924;52.122;9.952;2022-11-15T00:11:05;5.10;;;4.60;;
13704;SDS011;6924;52.122;9.952;2022-11-15T00:13:32;4.90;;;4.50;;
13704;SDS011;6924;52.122;9.952;2022-11-15T00:16:00;4.70;;;4.30;;
13704;SDS011;6924;52.122;9.952;2022-11-15T00:18:27;5.23;;;4.50;;
13704;SDS011;6924;52.122;9.952;2022-11-15T00:20:54;4.63;;;4.23;;
13704;SDS011;6924;52.122;9.952;2022-11-15T00:23:21;3.97;;;3.63;;
13704;SDS011;6924;52.122;9.952;2022-11-15T00:25:54;4.50;;;4.10;;
13704;SDS011;6924;52.122;9.952;2022-11-15T00:28:21;4.43;;;4.03;;
13704;SDS011;6924;52.122;9.952;2022-11-15T00:30:48;5.23;;;4.73;;
13704;SDS011;6924;52.122;9.952;2022-11-15T00:33:15;4.17;;;3.77;;
13704;SDS011;6924;52.122;9.952;2022-11-15T00:35:42;5.17;;;4.40;;
13704;SDS011;6924;52.122;9.952;2022-11-15T00:38:09;4.50;;;4.10;;
13704;SDS011;6924;52.122;9.952;2022-11-15T00:40:35;5.33;;;4.93;;
13704;SDS011;6924;52.122;9.952;2022-11-15T00:43:02;4.80;;;4.30;;
13704;SDS011;6924;52.122;9.952;2022-11-15T00:45:28;4.33;;;3.93;;
13704;SDS011;6924;52.122;9.952;2022-11-15T00:47:55;4.80;;;4.37;;
13704;SDS011;6924;52.122;9.952;2022-11-15T00:50:23;4.67;;;4.27;;
13704;SDS011;6924;52.122;9.952;2022-11-15T00:52:49;4.87;;;4.47;;
13704;SDS011;6924;52.122;9.952;2022-11-15T00:55:16;4.50;;;4.03;;
13704;SDS011;6924;52.122;9.952;2022-11-15T00:57:43;4.73;;;4.13;;
13704;SDS011;6924;52.122;9.952;2022-11-15T01:00:10;6.40;;;4.17;;
13704;SDS011;6924;52.122;9.952;2022-11-15T01:02:38;4.87;;;4.30;;
13704;SDS011;6924;52.122;9.952;2022-11-15T01:05:05;4.57;;;4.17;;
13704;SDS011;6924;52.122;9.952;2022-11-15T01:07:33;5.20;;;4.70;;
13704;SDS011;6924;52.122;9.952;2022-11-15T01:10:00;4.83;;;4.20;;
13704;SDS011;6924;52.122;9.952;2022-11-15T01:12:26;6.03;;;4.10;;
13704;SDS011;6924;52.122;9.952;2022-11-15T01:14:53;4.80;;;4.40;;
13704;SDS011;6924;52.122;9.952;2022-11-15T01:17:19;5.00;;;4.30;;
13704;SDS011;6924;52.122;9.952;2022-11-15T01:19:46;6.37;;;5.40;;
13704;SDS011;6924;52.122;9.952;2022-11-15T01:22:12;4.57;;;4.17;;
13704;SDS011;6924;52.122;9.952;2022-11-15T01:24:40;5.90;;;5.32;;
13704;SDS011;6924;52.122;9.952;2022-11-15T01:27:07;5.30;;;4.57;;
13704;SDS011;6924;52.122;9.952;2022-11-15T01:29:33;5.20;;;4.70;;
13704;SDS011;6924;52.122;9.952;2022-11-15T01:32:00;4.90;;;4.50;;
13704;SDS011;6924;52.122;9.952;2022-11-15T01:34:26;4.30;;;3.90;;
13704;SDS011;6924;52.122;9.952;2022-11-15T01:36:53;5.10;;;4.60;;
13704;SDS011;6924;52.122;9.952;2022-11-15T01:39:19;4.53;;;4.13;;
13704;SDS011;6924;52.122;9.952;2022-11-15T01:41:47;4.57;;;4.17;;
13704;SDS011;6924;52.122;9.952;2022-11-15T01:47:11;5.13;;;4.33;;
13704;SDS011;6924;52.122;9.952;2022-11-15T01:49:41;5.40;;;4.40;;
13704;SDS011;6924;52.122;9.952;2022-11-15T01:52:17;4.40;;;3.80;;
13704;SDS011;6924;52.122;9.952;2022-11-15T01:54:46;5.77;;;4.93;;
13704;SDS011;6924;52.122;9.952;2022-11-15T01:57:16;4.73;;;3.63;;
13704;SDS011;6924;52.122;9.952;2022-11-15T01:59:43;5.87;;;4.33;;
13704;SDS011;6924;52.122;9.952;2022-11-15T02:02:11;6.33;;;4.90;;
13704;SDS011;6924;52.122;9.952;2022-11-15T02:04:40;6.17;;;3.93;;
13704;SDS011;6924;52.122;9.952;2022-11-15T02:07:08;4.70;;;4.30;;
13704;SDS011;6924;52.122;9.952;2022-11-15T02:09:36;4.90;;;4.50;;
13704;SDS011;6924;52.122;9.952;2022-11-15T02:12:04;4.73;;;4.23;;
13704;SDS011;6924;52.122;9.952;2022-11-15T02:14:33;5.27;;;4.20;;
13704;SDS011;6924;52.122;9.952;2022-11-15T02:17:04;4.33;;;3.80;;
13704;SDS011;6924;52.122;9.952;2022-11-15T02:19:48;5.60;;;4.17;;
13704;SDS011;6924;52.122;9.952;2022-11-15T02:22:42;4.07;;;3.67;;
13704;SDS011;6924;52.122;9.952;2022-11-15T02:25:22;5.10;;;4.20;;
13704;SDS011;6924;52.122;9.952;2022-11-15T02:28:10;5.80;;;4.07;;
13704;SDS011;6924;52.122;9.952;2022-11-15T02:30:51;4.03;;;3.50;;
13704;SDS011;6924;52.122;9.952;2022-11-15T02:33:26;6.00;;;4.43;;
13704;SDS011;6924;52.122;9.952;2022-11-15T02:35:57;9.37;;;4.37;;
13704;SDS011;6924;52.122;9.952;2022-11-15T02:38:29;10.87;;;3.87;;
13704;SDS011;6924;52.122;9.952;2022-11-15T02:41:02;4.50;;;4.00;;
13704;SDS011;6924;52.122;9.952;2022-11-15T02:43:35;6.60;;;3.60;;
13704;SDS011;6924;52.122;9.952;2022-11-15T02:46:25;3.80;;;3.33;;
13704;SDS011;6924;52.122;9.952;2022-11-15T02:49:27;3.60;;;3.20;;
13704;SDS011;6924;52.122;9.952;2022-11-15T02:51:55;3.90;;;3.30;;
13704;SDS011;6924;52.122;9.952;2022-11-15T02:54:23;3.10;;;2.73;;
13704;SDS011;6924;52.122;9.952;2022-11-15T02:56:51;3.17;;;2.83;;
13704;SDS011;6924;52.122;9.952;2022-11-15T02:59:28;4.87;;;3.13;;
13704;SDS011;6924;52.122;9.952;2022-11-15T03:02:13;3.70;;;2.90;;
13704;SDS011;6924;52.122;9.952;2022-11-15T03:04:48;5.97;;;3.20;;
13704;SDS011;6924;52.122;9.952;2022-11-15T03:07:22;10.70;;;3.63;;
13704;SDS011;6924;52.122;9.952;2022-11-15T03:09:56;2.80;;;2.60;;
13704;SDS011;6924;52.122;9.952;2022-11-15T03:12:30;3.90;;;2.90;;
13704;SDS011;6924;52.122;9.952;2022-11-15T03:15:05;2.57;;;2.37;;
13704;SDS011;6924;52.122;9.952;2022-11-15T03:17:38;5.27;;;2.90;;
13704;SDS011;6924;52.122;9.952;2022-11-15T03:20:10;2.73;;;2.53;;
13704;SDS011;6924;52.122;9.952;2022-11-15T03:22:42;5.00;;;2.57;;
13704;SDS011;6924;52.122;9.952;2022-11-15T03:25:12;3.47;;;2.93;;
13704;SDS011;6924;52.122;9.952;2022-11-15T03:27:43;4.77;;;2.57;;
13704;SDS011;6924;52.122;9.952;2022-11-15T03:30:14;3.27;;;2.97;;
13704;SDS011;6924;52.122;9.952;2022-11-15T03:32:44;4.87;;;2.83;;
13704;SDS011;6924;52.122;9.952;2022-11-15T03:35:14;4.03;;;2.57;;
13704;SDS011;6924;52.122;9.952;2022-11-15T03:37:45;3.27;;;2.53;;
13704;SDS011;6924;52.122;9.952;2022-11-15T03:40:16;2.77;;;2.57;;
13704;SDS011;6924;52.122;9.952;2022-11-15T03:42:48;2.93;;;2.37;;
13704;SDS011;6924;52.122;9.952;2022-11-15T03:45:26;2.50;;;2.30;;
13704;SDS011;6924;52.122;9.952;2022-11-15T03:47:58;3.03;;;2.30;;
13704;SDS011;6924;52.122;9.952;2022-11-15T03:50:28;3.23;;;2.30;;
13704;SDS011;6924;52.122;9.952;2022-11-15T03:52:55;4.40;;;2.73;;
13704;SDS011;6924;52.122;9.952;2022-11-15T03:55:22;2.43;;;2.20;;
13704;SDS011;6924;52.122;9.952;2022-11-15T03:57:49;2.53;;;2.33;;
13704;SDS011;6924;52.122;9.952;2022-11-15T04:00:17;5.87;;;2.57;;
13704;SDS011;6924;52.122;9.952;2022-11-15T04:02:44;3.97;;;2.80;;
13704;SDS011;6924;52.122;9.952;2022-11-15T04:05:12;2.53;;;2.33;;
13704;SDS011;6924;52.122;9.952;2022-11-15T04:07:38;2.93;;;2.63;;
13704;SDS011;6924;52.122;9.952;2022-11-15T04:10:05;2.70;;;2.50;;
13704;SDS011;6924;52.122;9.952;2022-11-15T04:12:33;3.10;;;2.80;;
13704;SDS011;6924;52.122;9.952;2022-11-15T04:15:02;3.67;;;2.67;;
13704;SDS011;6924;52.122;9.952;2022-11-15T04:17:34;2.23;;;2.10;;
13704;SDS011;6924;52.122;9.952;2022-11-15T04:20:01;7.37;;;2.97;;
13704;SDS011;6924;52.122;9.952;2022-11-15T04:22:47;2.63;;;2.30;;
13704;SDS011;6924;52.122;9.952;2022-11-15T04:25:31;2.47;;;2.10;;
13704;SDS011;6924;52.122;9.952;2022-11-15T04:27:58;2.93;;;2.50;;
13704;SDS011;6924;52.122;9.952;2022-11-15T04:30:24;2.93;;;2.63;;
13704;SDS011;6924;52.122;9.952;2022-11-15T04:32:51;5.00;;;2.30;;
13704;SDS011;6924;52.122;9.952;2022-11-15T04:35:17;3.67;;;2.37;;
13704;SDS011;6924;52.122;9.952;2022-11-15T04:37:44;3.00;;;2.30;;
13704;SDS011;6924;52.122;9.952;2022-11-15T04:40:11;5.47;;;2.33;;
13704;SDS011;6924;52.122;9.952;2022-11-15T04:42:37;2.53;;;2.23;;
13704;SDS011;6924;52.122;9.952;2022-11-15T04:45:06;2.63;;;2.07;;
13704;SDS011;6924;52.122;9.952;2022-11-15T04:47:33;2.53;;;2.20;;
13704;SDS011;6924;52.122;9.952;2022-11-15T04:49:59;3.97;;;2.67;;
13704;SDS011;6924;52.122;9.952;2022-11-15T04:52:26;2.60;;;2.40;;
13704;SDS011;6924;52.122;9.952;2022-11-15T04:54:52;2.50;;;2.30;;
13704;SDS011;6924;52.122;9.952;2022-11-15T04:57:20;2.87;;;2.40;;
13704;SDS011;6924;52.122;9.952;2022-11-15T04:59:47;2.53;;;1.90;;
13704;SDS011;6924;52.122;9.952;2022-11-15T05:02:13;3.17;;;2.40;;
13704;SDS011;6924;52.122;9.952;2022-11-15T05:04:40;3.07;;;2.30;;
13704;SDS011;6924;52.122;9.952;2022-11-15T05:07:05;6.40;;;3.00;;
13704;SDS011;6924;52.122;9.952;2022-11-15T05:09:32;3.23;;;2.30;;
13704;SDS011;6924;52.122;9.952;2022-11-15T05:11:58;4.23;;;2.57;;
13704;SDS011;6924;52.122;9.952;2022-11-15T05:14:26;2.37;;;2.17;;
13704;SDS011;6924;52.122;9.952;2022-11-15T05:16:53;3.87;;;2.20;;
13704;SDS011;6924;52.122;9.952;2022-11-15T05:19:19;2.43;;;2.20;;
13704;SDS011;6924;52.122;9.952;2022-11-15T05:21:46;3.30;;;2.27;;
13704;SDS011;6924;52.122;9.952;2022-11-15T05:24:13;2.57;;;2.37;;
13704;SDS011;6924;52.122;9.952;2022-11-15T05:26:40;3.93;;;3.00;;
13704;SDS011;6924;52.122;9.952;2022-11-15T05:29:08;3.63;;;3.33;;
13704;SDS011;6924;52.122;9.952;2022-11-15T05:31:37;3.80;;;2.67;;
13704;SDS011;6924;52.122;9.952;2022-11-15T05:34:06;3.70;;;2.30;;
13704;SDS011;6924;52.122;9.952;2022-11-15T05:36:33;2.70;;;2.50;;
13704;SDS011;6924;52.122;9.952;2022-11-15T05:39:02;2.00;;;1.90;;
13704;SDS011;6924;52.122;9.952;2022-11-15T05:41:30;3.07;;;2.77;;
13704;SDS011;6924;52.122;9.952;2022-11-15T05:44:01;2.70;;;2.47;;
13704;SDS011;6924;52.122;9.952;2022-11-15T05:46:28;3.80;;;2.53;;
13704;SDS011;6924;52.122;9.952;2022-11-15T05:48:57;2.93;;;2.60;;
13704;SDS011;6924;52.122;9.952;2022-11-15T05:51:24;2.67;;;2.37;;
13704;SDS011;6924;52.122;9.952;2022-11-15T05:53:54;3.63;;;2.53;;
13704;SDS011;6924;52.122;9.952;2022-11-15T05:56:22;2.70;;;2.50;;
13704;SDS011;6924;52.122;9.952;2022-11-15T05:58:49;2.87;;;2.37;;
13704;SDS011;6924;52.122;9.952;2022-11-15T06:01:15;3.57;;;2.77;;
13704;SDS011;6924;52.122;9.952;2022-11-15T06:03:42;3.23;;;2.60;;
13704;SDS011;6924;52.122;9.952;2022-11-15T06:06:10;4.10;;;2.63;;
13704;SDS011;6924;52.122;9.952;2022-11-15T06:08:36;2.77;;;2.57;;
13704;SDS011;6924;52.122;9.952;2022-11-15T06:11:03;2.83;;;2.53;;
13704;SDS011;6924;52.122;9.952;2022-11-15T06:13:30;3.20;;;2.90;;
13704;SDS011;6924;52.122;9.952;2022-11-15T06:15:57;2.63;;;2.43;;
13704;SDS011;6924;52.122;9.952;2022-11-15T06:18:24;5.27;;;3.13;;
13704;SDS011;6924;52.122;9.952;2022-11-15T06:20:50;3.37;;;3.13;;
13704;SDS011;6924;52.122;9.952;2022-11-15T06:23:18;3.00;;;2.70;;
13704;SDS011;6924;52.122;9.952;2022-11-15T06:25:45;2.40;;;2.20;;
13704;SDS011;6924;52.122;9.952;2022-11-15T06:28:11;3.77;;;2.73;;
13704;SDS011;6924;52.122;9.952;2022-11-15T06:30:38;2.50;;;1.80;;
13704;SDS011;6924;52.122;9.952;2022-11-15T06:33:05;3.10;;;2.90;;
13704;SDS011;6924;52.122;9.952;2022-11-15T06:35:33;2.97;;;2.70;;
13704;SDS011;6924;52.122;9.952;2022-11-15T06:38:01;3.23;;;2.90;;
13704;SDS011;6924;52.122;9.952;2022-11-15T06:40:30;3.47;;;3.17;;
13704;SDS011;6924;52.122;9.952;2022-11-15T06:42:58;4.40;;;2.20;;
13704;SDS011;6924;52.122;9.952;2022-11-15T06:45:25;4.27;;;3.07;;
13704;SDS011;6924;52.122;9.952;2022-11-15T06:47:52;5.73;;;3.37;;
13704;SDS011;6924;52.122;9.952;2022-11-15T06:50:19;3.57;;;3.20;;
13704;SDS011;6924;52.122;9.952;2022-11-15T06:52:45;3.87;;;2.70;;
13704;SDS011;6924;52.122;9.952;2022-11-15T06:55:12;3.10;;;2.90;;
13704;SDS011;6924;52.122;9.952;2022-11-15T06:57:47;3.23;;;2.73;;
13704;SDS011;6924;52.122;9.952;2022-11-15T07:00:15;3.13;;;2.83;;
13704;SDS011;6924;52.122;9.952;2022-11-15T07:02:42;2.43;;;2.23;;
13704;SDS011;6924;52.122;9.952;2022-11-15T07:05:09;3.70;;;2.83;;
13704;SDS011;6924;52.122;9.952;2022-11-15T07:07:36;3.33;;;2.97;;
13704;SDS011;6924;52.122;9.952;2022-11-15T07:10:03;2.67;;;2.47;;
13704;SDS011;6924;52.122;9.952;2022-11-15T07:12:31;3.57;;;2.93;;
13704;SDS011;6924;52.122;9.952;2022-11-15T07:14:59;2.97;;;2.63;;
13704;SDS011;6924;52.122;9.952;2022-11-15T07:17:25;3.43;;;3.00;;
13704;SDS011;6924;52.122;9.952;2022-11-15T07:19:52;2.83;;;2.50;;
13704;SDS011;6924;52.122;9.952;2022-11-15T07:22:18;3.43;;;2.53;;
13704;SDS011;6924;52.122;9.952;2022-11-15T07:24:45;3.87;;;3.20;;
13704;SDS011;6924;52.122;9.952;2022-11-15T07:27:11;3.17;;;2.43;;
13704;SDS011;6924;52.122;9.952;2022-11-15T07:29:38;4.37;;;3.20;;
13704;SDS011;6924;52.122;9.952;2022-11-15T07:32:06;3.90;;;3.27;;
13704;SDS011;6924;52.122;9.952;2022-11-15T07:34:32;3.27;;;2.73;;
13704;SDS011;6924;52.122;9.952;2022-11-15T07:36:59;3.17;;;2.87;;
13704;SDS011;6924;52.122;9.952;2022-11-15T07:39:25;2.40;;;2.20;;
13704;SDS011;6924;52.122;9.952;2022-11-15T07:41:52;2.77;;;2.40;;
13704;SDS011;6924;52.122;9.952;2022-11-15T07:44:39;2.67;;;2.33;;
13704;SDS011;6924;52.122;9.952;2022-11-15T07:47:07;3.30;;;2.50;;
13704;SDS011;6924;52.122;9.952;2022-11-15T07:49:33;2.67;;;2.13;;
13704;SDS011;6924;52.122;9.952;2022-11-15T07:52:00;2.33;;;2.13;;
13704;SDS011;6924;52.122;9.952;2022-11-15T07:54:26;2.77;;;2.33;;
13704;SDS011;6924;52.122;9.952;2022-11-15T07:56:53;2.40;;;2.03;;
13704;SDS011;6924;52.122;9.952;2022-11-15T07:59:19;2.03;;;1.80;;
13704;SDS011;6924;52.122;9.952;2022-11-15T08:01:46;2.77;;;2.33;;
13704;SDS011;6924;52.122;9.952;2022-11-15T08:04:13;2.30;;;1.90;;
13704;SDS011;6924;52.122;9.952;2022-11-15T08:06:40;2.60;;;2.37;;
13704;SDS011;6924;52.122;9.952;2022-11-15T08:09:07;2.40;;;2.17;;
13704;SDS011;6924;52.122;9.952;2022-11-15T08:11:33;2.60;;;2.13;;
13704;SDS011;6924;52.122;9.952;2022-11-15T08:14:00;3.07;;;2.00;;
13704;SDS011;6924;52.122;9.952;2022-11-15T08:16:26;3.40;;;2.90;;
13704;SDS011;6924;52.122;9.952;2022-11-15T08:18:53;2.60;;;2.20;;
13704;SDS011;6924;52.122;9.952;2022-11-15T08:21:21;2.90;;;2.03;;
13704;SDS011;6924;52.122;9.952;2022-11-15T08:23:48;2.93;;;2.00;;
13704;SDS011;6924;52.122;9.952;2022-11-15T08:26:15;3.03;;;1.90;;
13704;SDS011;6924;52.122;9.952;2022-11-15T08:28:41;1.87;;;1.73;;
13704;SDS011;6924;52.122;9.952;2022-11-15T08:31:12;3.40;;;2.00;;
13704;SDS011;6924;52.122;9.952;2022-11-15T08:33:39;2.77;;;2.47;;
13704;SDS011;6924;52.122;9.952;2022-11-15T08:36:06;3.80;;;2.17;;
13704;SDS011;6924;52.122;9.952;2022-11-15T08:38:38;2.63;;;1.93;;
13704;SDS011;6924;52.122;9.952;2022-11-15T08:41:05;3.23;;;2.90;;
13704;SDS011;6924;52.122;9.952;2022-11-15T08:43:32;2.77;;;2.10;;
13704;SDS011;6924;52.122;9.952;2022-11-15T08:45:58;2.37;;;1.90;;
13704;SDS011;6924;52.122;9.952;2022-11-15T08:48:25;3.60;;;1.87;;
13704;SDS011;6924;52.122;9.952;2022-11-15T08:50:53;2.07;;;1.87;;
13704;SDS011;6924;52.122;9.952;2022-11-15T08:53:20;4.40;;;2.30;;
13704;SDS011;6924;52.122;9.952;2022-11-15T08:55:47;2.07;;;1.90;;
13704;SDS011;6924;52.122;9.952;2022-11-15T08:58:14;2.53;;;1.73;;
13704;SDS011;6924;52.122;9.952;2022-11-15T09:00:40;3.10;;;2.00;;
13704;SDS011;6924;52.122;9.952;2022-11-15T09:03:07;1.60;;;1.50;;
13704;SDS011;6924;52.122;9.952;2022-11-15T09:05:35;3.67;;;2.43;;
13704;SDS011;6924;52.122;9.952;2022-11-15T09:08:03;3.03;;;2.40;;
13704;SDS011;6924;52.122;9.952;2022-11-15T09:10:30;2.30;;;2.10;;
13704;SDS011;6924;52.122;9.952;2022-11-15T09:12:57;3.27;;;1.80;;
13704;SDS011;6924;52.122;9.952;2022-11-15T09:15:24;2.97;;;2.10;;
13704;SDS011;6924;52.122;9.952;2022-11-15T09:17:50;2.20;;;1.97;;
13704;SDS011;6924;52.122;9.952;2022-11-15T09:20:17;1.70;;;1.60;;
13704;SDS011;6924;52.122;9.952;2022-11-15T09:22:44;2.07;;;1.97;;
13704;SDS011;6924;52.122;9.952;2022-11-15T09:25:10;2.73;;;2.10;;
13704;SDS011;6924;52.122;9.952;2022-11-15T09:27:37;2.50;;;2.30;;
13704;SDS011;6924;52.122;9.952;2022-11-15T09:30:05;2.43;;;2.23;;
13704;SDS011;6924;52.122;9.952;2022-11-15T09:32:32;2.10;;;1.90;;
13704;SDS011;6924;52.122;9.952;2022-11-15T09:34:59;2.30;;;2.03;;
13704;SDS011;6924;52.122;9.952;2022-11-15T09:37:26;2.30;;;2.13;;
13704;SDS011;6924;52.122;9.952;2022-11-15T09:39:52;2.80;;;1.70;;
13704;SDS011;6924;52.122;9.952;2022-11-15T09:42:22;4.03;;;2.37;;
13704;SDS011;6924;52.122;9.952;2022-11-15T09:45:05;2.40;;;2.20;;
13704;SDS011;6924;52.122;9.952;2022-11-15T09:50:44;3.07;;;1.43;;
13704;SDS011;6924;52.122;9.952;2022-11-15T09:53:14;3.50;;;1.30;;
13704;SDS011;6924;52.122;9.952;2022-11-15T09:55:50;2.13;;;1.73;;
13704;SDS011;6924;52.122;9.952;2022-11-15T09:58:24;3.27;;;1.50;;
13704;SDS011;6924;52.122;9.952;2022-11-15T10:01:00;3.23;;;1.90;;
13704;SDS011;6924;52.122;9.952;2022-11-15T10:03:33;1.50;;;1.30;;
13704;SDS011;6924;52.122;9.952;2022-11-15T10:06:01;2.40;;;1.77;;
13704;SDS011;6924;52.122;9.952;2022-11-15T10:08:46;3.30;;;1.87;;
13704;SDS011;6924;52.122;9.952;2022-11-15T10:11:20;1.50;;;1.40;;
13704;SDS011;6924;52.122;9.952;2022-11-15T10:13:50;2.43;;;1.90;;
13704;SDS011;6924;52.122;9.952;2022-11-15T10:16:25;3.47;;;2.03;;
13704;SDS011;6924;52.122;9.952;2022-11-15T10:19:05;2.03;;;1.83;;
13704;SDS011;6924;52.122;9.952;2022-11-15T10:21:40;3.13;;;1.80;;
13704;SDS011;6924;52.122;9.952;2022-11-15T10:24:15;2.03;;;1.90;;
13704;SDS011;6924;52.122;9.952;2022-11-15T10:26:45;2.00;;;1.50;;
13704;SDS011;6924;52.122;9.952;2022-11-15T10:29:17;1.93;;;1.33;;
13704;SDS011;6924;52.122;9.952;2022-11-15T10:31:46;1.80;;;1.63;;
13704;SDS011;6924;52.122;9.952;2022-11-15T10:34:13;2.70;;;2.13;;
13704;SDS011;6924;52.122;9.952;2022-11-15T10:36:43;3.47;;;1.73;;
13704;SDS011;6924;52.122;9.952;2022-11-15T10:39:11;1.80;;;1.70;;
13704;SDS011;6924;52.122;9.952;2022-11-15T10:41:39;1.97;;;1.77;;
13704;SDS011;6924;52.122;9.952;2022-11-15T10:47:21;3.33;;;1.50;;
13704;SDS011;6924;52.122;9.952;2022-11-15T10:49:57;1.83;;;1.73;;
13704;SDS011;6924;52.122;9.952;2022-11-15T10:52:26;2.27;;;1.77;;
13704;SDS011;6924;52.122;9.952;2022-11-15T10:54:55;2.20;;;1.80;;
13704;SDS011;6924;52.122;9.952;2022-11-15T10:57:26;2.63;;;2.00;;
13704;SDS011;6924;52.122;9.952;2022-11-15T10:59:54;1.90;;;1.80;;
13704;SDS011;6924;52.122;9.952;2022-11-15T11:02:28;1.73;;;1.63;;
13704;SDS011;6924;52.122;9.952;2022-11-15T11:04:57;2.67;;;2.37;;
13704;SDS011;6924;52.122;9.952;2022-11-15T11:07:25;1.87;;;1.70;;
13704;SDS011;6924;52.122;9.952;2022-11-15T11:09:57;1.70;;;1.40;;
13704;SDS011;6924;52.122;9.952;2022-11-15T11:12:29;2.83;;;1.83;;
13704;SDS011;6924;52.122;9.952;2022-11-15T11:14:57;1.87;;;1.77;;
13704;SDS011;6924;52.122;9.952;2022-11-15T11:17:29;1.70;;;1.40;;
13704;SDS011;6924;52.122;9.952;2022-11-15T11:20:05;2.27;;;1.77;;
13704;SDS011;6924;52.122;9.952;2022-11-15T11:22:38;2.33;;;1.77;;
13704;SDS011;6924;52.122;9.952;2022-11-15T11:25:16;2.30;;;1.70;;
13704;SDS011;6924;52.122;9.952;2022-11-15T11:27:53;2.87;;;2.00;;
13704;SDS011;6924;52.122;9.952;2022-11-15T11:30:33;2.43;;;2.00;;
13704;SDS011;6924;52.122;9.952;2022-11-15T11:33:16;2.30;;;2.10;;
13704;SDS011;6924;52.122;9.952;2022-11-15T11:35:50;2.83;;;1.83;;
13704;SDS011;6924;52.122;9.952;2022-11-15T11:38:34;1.90;;;1.80;;
13704;SDS011;6924;52.122;9.952;2022-11-15T11:41:10;2.90;;;2.00;;
13704;SDS011;6924;52.122;9.952;2022-11-15T11:43:47;2.40;;;2.20;;
13704;SDS011;6924;52.122;9.952;2022-11-15T11:46:36;2.03;;;1.83;;
13704;SDS011;6924;52.122;9.952;2022-11-15T11:49:16;2.40;;;2.17;;
13704;SDS011;6924;52.122;9.952;2022-11-15T11:51:49;2.00;;;1.80;;
13704;SDS011;6924;52.122;9.952;2022-11-15T11:54:20;2.03;;;1.83;;
13704;SDS011;6924;52.122;9.952;2022-11-15T11:56:51;2.00;;;1.80;;
13704;SDS011;6924;52.122;9.952;2022-11-15T11:59:22;2.67;;;2.00;;
13704;SDS011;6924;52.122;9.952;2022-11-15T12:01:54;2.40;;;2.20;;
13704;SDS011;6924;52.122;9.952;2022-11-15T12:04:24;2.27;;;2.00;;
13704;SDS011;6924;52.122;9.952;2022-11-15T12:06:56;2.17;;;1.97;;
13704;SDS011;6924;52.122;9.952;2022-11-15T12:09:27;3.13;;;1.70;;
13704;SDS011;6924;52.122;9.952;2022-11-15T12:12:00;2.13;;;1.90;;
13704;SDS011;6924;52.122;9.952;2022-11-15T12:14:35;2.63;;;1.90;;
13704;SDS011;6924;52.122;9.952;2022-11-15T12:17:07;2.23;;;2.03;;
13704;SDS011;6924;52.122;9.952;2022-11-15T12:19:35;2.97;;;2.37;;
13704;SDS011;6924;52.122;9.952;2022-11-15T12:22:03;1.83;;;1.60;;
13704;SDS011;6924;52.122;9.952;2022-11-15T12:24:37;2.40;;;1.63;;
13704;SDS011;6924;52.122;9.952;2022-11-15T12:27:08;2.70;;;2.10;;
13704;SDS011;6924;52.122;9.952;2022-11-15T12:29:43;2.33;;;1.53;;
13704;SDS011;6924;52.122;9.952;2022-11-15T12:32:17;2.10;;;1.90;;
13704;SDS011;6924;52.122;9.952;2022-11-15T12:34:51;2.83;;;2.43;;
13704;SDS011;6924;52.122;9.952;2022-11-15T12:37:46;2.13;;;1.70;;
13704;SDS011;6924;52.122;9.952;2022-11-15T12:40:28;2.47;;;1.70;;
13704;SDS011;6924;52.122;9.952;2022-11-15T12:42:57;1.90;;;1.70;;
13704;SDS011;6924;52.122;9.952;2022-11-15T12:45:42;1.83;;;1.63;;
13704;SDS011;6924;52.122;9.952;2022-11-15T12:57:34;1.80;;;1.63;;
13704;SDS011;6924;52.122;9.952;2022-11-15T13:03:22;2.30;;;1.93;;
13704;SDS011;6924;52.122;9.952;2022-11-15T13:05:55;2.03;;;1.83;;
13704;SDS011;6924;52.122;9.952;2022-11-15T13:17:17;2.57;;;1.53;;
13704;SDS011;6924;52.122;9.952;2022-11-15T13:19:52;2.37;;;1.47;;
13704;SDS011;6924;52.122;9.952;2022-11-15T13:22:24;2.47;;;1.80;;
13704;SDS011;6924;52.122;9.952;2022-11-15T13:25:14;2.17;;;1.83;;
13704;SDS011;6924;52.122;9.952;2022-11-15T13:27:44;1.77;;;1.50;;
13704;SDS011;6924;52.122;9.952;2022-11-15T13:30:14;2.70;;;2.03;;
13704;SDS011;6924;52.122;9.952;2022-11-15T13:32:48;3.10;;;2.10;;
13704;SDS011;6924;52.122;9.952;2022-11-15T13:35:20;1.93;;;1.63;;
13704;SDS011;6924;52.122;9.952;2022-11-15T13:37:48;2.53;;;1.70;;
13704;SDS011;6924;52.122;9.952;2022-11-15T13:40:18;3.17;;;1.40;;
13704;SDS011;6924;52.122;9.952;2022-11-15T13:42:48;2.00;;;1.80;;
13704;SDS011;6924;52.122;9.952;2022-11-15T13:45:16;1.57;;;1.47;;
13704;SDS011;6924;52.122;9.952;2022-11-15T13:47:44;2.53;;;1.80;;
13704;SDS011;6924;52.122;9.952;2022-11-15T13:50:11;3.93;;;1.67;;
13704;SDS011;6924;52.122;9.952;2022-11-15T13:52:39;2.53;;;1.60;;
13704;SDS011;6924;52.122;9.952;2022-11-15T13:55:12;4.20;;;1.87;;
13704;SDS011;6924;52.122;9.952;2022-11-15T13:57:42;1.93;;;1.83;;
13704;SDS011;6924;52.122;9.952;2022-11-15T14:00:24;1.67;;;1.17;;
13704;SDS011;6924;52.122;9.952;2022-11-15T14:02:53;2.10;;;1.93;;
13704;SDS011;6924;52.122;9.952;2022-11-15T14:05:21;3.60;;;1.63;;
13704;SDS011;6924;52.122;9.952;2022-11-15T14:07:53;2.33;;;1.73;;
13704;SDS011;6924;52.122;9.952;2022-11-15T14:10:28;2.10;;;2.00;;
13704;SDS011;6924;52.122;9.952;2022-11-15T14:12:56;2.50;;;1.73;;
13704;SDS011;6924;52.122;9.952;2022-11-15T14:15:29;1.90;;;1.80;;
13704;SDS011;6924;52.122;9.952;2022-11-15T14:17:57;1.93;;;1.40;;
13704;SDS011;6924;52.122;9.952;2022-11-15T14:20:28;3.50;;;1.87;;
13704;SDS011;6924;52.122;9.952;2022-11-15T14:22:58;1.77;;;1.60;;
13704;SDS011;6924;52.122;9.952;2022-11-15T14:25:26;1.50;;;1.40;;
13704;SDS011;6924;52.122;9.952;2022-11-15T14:30:43;1.40;;;1.30;;
13704;SDS011;6924;52.122;9.952;2022-11-15T14:33:19;2.73;;;1.53;;
13704;SDS011;6924;52.122;9.952;2022-11-15T14:35:48;4.20;;;1.50;;
13704;SDS011;6924;52.122;9.952;2022-11-15T14:38:15;1.40;;;1.30;;
13704;SDS011;6924;52.122;9.952;2022-11-15T14:40:42;1.83;;;1.70;;
13704;SDS011;6924;52.122;9.952;2022-11-15T14:43:09;2.07;;;1.83;;
13704;SDS011;6924;52.122;9.952;2022-11-15T14:45:36;2.00;;;1.70;;
13704;SDS011;6924;52.122;9.952;2022-11-15T14:48:04;2.30;;;1.83;;
13704;SDS011;6924;52.122;9.952;2022-11-15T14:50:32;1.63;;;1.53;;
13704;SDS011;6924;52.122;9.952;2022-11-15T14:52:59;2.17;;;1.70;;
13704;SDS011;6924;52.122;9.952;2022-11-15T14:55:27;1.97;;;1.87;;
13704;SDS011;6924;52.122;9.952;2022-11-15T14:57:56;1.67;;;1.57;;
13704;SDS011;6924;52.122;9.952;2022-11-15T15:00:23;1.80;;;1.70;;
13704;SDS011;6924;52.122;9.952;2022-11-15T15:02:50;2.93;;;1.40;;
13704;SDS011;6924;52.122;9.952;2022-11-15T15:05:21;1.90;;;1.80;;
13704;SDS011;6924;52.122;9.952;2022-11-15T15:07:49;1.63;;;1.50;;
13704;SDS011;6924;52.122;9.952;2022-11-15T15:10:16;6.83;;;2.33;;
13704;SDS011;6924;52.122;9.952;2022-11-15T15:12:43;2.93;;;1.70;;
13704;SDS011;6924;52.122;9.952;2022-11-15T15:15:14;2.20;;;2.00;;
13704;SDS011;6924;52.122;9.952;2022-11-15T15:17:42;1.50;;;1.40;;
13704;SDS011;6924;52.122;9.952;2022-11-15T15:20:09;2.50;;;1.90;;
13704;SDS011;6924;52.122;9.952;2022-11-15T15:22:37;2.53;;;1.53;;
13704;SDS011;6924;52.122;9.952;2022-11-15T15:25:13;3.10;;;1.80;;
13704;SDS011;6924;52.122;9.952;2022-11-15T15:27:46;2.60;;;1.40;;
13704;SDS011;6924;52.122;9.952;2022-11-15T15:30:13;1.73;;;1.47;;
13704;SDS011;6924;52.122;9.952;2022-11-15T15:32:39;1.83;;;1.43;;
13704;SDS011;6924;52.122;9.952;2022-11-15T15:35:07;1.50;;;1.40;;
13704;SDS011;6924;52.122;9.952;2022-11-15T15:37:35;1.80;;;1.70;;
13704;SDS011;6924;52.122;9.952;2022-11-15T15:40:08;1.87;;;1.40;;
13704;SDS011;6924;52.122;9.952;2022-11-15T15:42:39;3.67;;;2.20;;
13704;SDS011;6924;52.122;9.952;2022-11-15T15:45:06;1.47;;;1.33;;
13704;SDS011;6924;52.122;9.952;2022-11-15T15:47:33;2.17;;;1.97;;
13704;SDS011;6924;52.122;9.952;2022-11-15T15:49:59;2.60;;;1.67;;